Urbana, Maryland
Current Conditions -  °F | °C
As of 3:25 AM on Thursday 18 Dec 2014 (Local Time) from KFDK Reporting Station
Overcast Overcast  
Wind Chill: 31°   Ceiling: 4800
Heat Index: 37°   Visibility: 10mi
Dew Point: 19°   Wind: 9mph
Humidity: 48%   Direction: 300°WNW
Pressure: 30.12"   Gusts: NA
Location:  39.3474°N, 77.3714°W
Report Text: KFDK 180825Z AUTO 30008KT 10SM OVC048 03/M07 A3012 RMK AO2
Loading
Personal Weather Stations






























Interactive Weather Map New forecast layout! Learn more

10-Day Weather Forecast

Advertisements
Track Severe Weather on mobile